Harrison Township, MI (48045)

7:07 PM EDT on July 29, 2016 (GMT -0400)
Venice Shores on Lake St. Clair | | Change Station

Elev 577 ft 42.60 °N, 82.80 °W | Updated 5 minutes ago

Mostly Cloudy
Mostly Cloudy
79.9 °F
Feels Like 82 °F
N
8.3
Wind Variable Wind from NNE
Gusts 13.2 mph

Today
High -- | Low -- °F
--% Chance of Precip.
Yesterday
High -- | Low -- °F
Precip. -- in
Pressure 29.94 in
Visibility 10.0 miles
Clouds Few 5000 ft
Scattered Clouds 12000 ft
Mostly Cloudy 15000 ft
Mostly Cloudy 20000 ft
Heat Index 82 °F
Dew Point 66 °F
Humidity 63%
Rainfall 0.00 in
Snow Depth Not available.
6:20 AM 8:54 PM
Waning Crescent, 18% visible
METAR KMTC 292258Z 03010KT 10SM FEW050 SCT120 BKN150 BKN200 25/16 A2994 RMK AO2A SLP139 T02460161 $
Pressure 29.94 in
Visibility 10.0 miles
Clouds Few 5000 ft
Scattered Clouds 12000 ft
Mostly Cloudy 15000 ft
Mostly Cloudy 20000 ft
Heat Index 82 °F
Dew Point 66 °F
Humidity 63%
Rainfall 0.00 in
Snow Depth Not available.
6:20 AM 8:54 PM
Waning Crescent, 18% visible
METAR KMTC 292258Z 03010KT 10SM FEW050 SCT120 BKN150 BKN200 25/16 A2994 RMK AO2A SLP139 T02460161 $

10-Day Weather Forecast

Almanac

Astronomy

Jul. 29, 2016 Rise Set
Actual Time
Civil Twilight
Nautical Twilight
Astronomical Twilight
Moon
Length of Visible Light
Length of Day
Tomorrow will be .
, % of the Moon is Illuminated

Today's Extremes

State Highs State Lows

Community

WunderPhotos

Upload Photos

1,928,437 photos uploaded!

WunderBlog® & News

Nearby

Air Quality

  Air Quality AQ Index Pollutant
Not available.

Snow Depth

Station Depth Elevation

Earthquake Activity

City Distance Mag. Time & Date
Minimum magnitude displayed is 2.5.

Coastal Water Temperatures

Place Temperature

Stations

Nearby Weather Stations

Station Location Temp. Windchill Dew Point Humidity Wind Precip. Elev Updated Type
                   

Watches & Warnings

There are currently no watches in effect.